createdAt,value
2018-12-27T00:00:43.809Z,48.70
2018-12-27T00:03:11.365Z,51.43
2018-12-27T00:05:38.753Z,51.87
2018-12-27T00:08:06.288Z,55.17
2018-12-27T00:10:33.748Z,53.73
2018-12-27T00:13:01.230Z,52.10
2018-12-27T00:15:28.813Z,56.97
2018-12-27T00:17:56.328Z,55.43
2018-12-27T00:20:23.869Z,50.60
2018-12-27T00:22:51.502Z,49.27
2018-12-27T00:25:20.606Z,46.70
2018-12-27T00:27:48.115Z,43.30
2018-12-27T00:30:15.932Z,42.13
2018-12-27T00:32:44.863Z,43.80
2018-12-27T00:35:12.525Z,45.27
2018-12-27T00:37:42.216Z,41.60
2018-12-27T00:40:09.625Z,41.33
2018-12-27T00:42:38.473Z,44.47
2018-12-27T00:45:06.295Z,42.87
2018-12-27T00:47:33.943Z,45.03
2018-12-27T00:50:01.562Z,50.57
2018-12-27T00:52:30.297Z,48.87
2018-12-27T00:54:59.047Z,48.77
2018-12-27T00:57:30.865Z,49.73
2018-12-27T00:59:58.730Z,46.50
2018-12-27T01:02:28.069Z,45.30
2018-12-27T01:04:59.768Z,43.63
2018-12-27T01:07:27.415Z,44.73
2018-12-27T01:09:57.043Z,43.30
2018-12-27T01:12:24.436Z,40.50
2018-12-27T01:14:52.192Z,48.00
2018-12-27T01:17:19.810Z,42.40
2018-12-27T01:19:47.383Z,42.60
2018-12-27T01:22:15.001Z,43.90
2018-12-27T01:24:42.587Z,43.87
2018-12-27T01:27:11.897Z,40.73
2018-12-27T01:29:39.704Z,39.37
2018-12-27T01:32:07.286Z,37.93
2018-12-27T01:34:37.583Z,37.47
2018-12-27T01:37:05.278Z,36.13
2018-12-27T01:39:33.013Z,37.57
2018-12-27T01:42:00.721Z,39.10
2018-12-27T01:44:28.428Z,40.03
2018-12-27T01:46:56.102Z,40.50
2018-12-27T01:49:23.713Z,40.87
2018-12-27T01:51:51.939Z,37.77
2018-12-27T01:54:19.645Z,38.57
2018-12-27T01:56:47.331Z,39.27
2018-12-27T01:59:17.373Z,39.57
2018-12-27T02:01:45.033Z,40.43
2018-12-27T02:04:15.786Z,37.47
2018-12-27T02:06:43.195Z,36.03
2018-12-27T02:09:10.853Z,36.07
2018-12-27T02:11:38.409Z,38.13
2018-12-27T02:14:06.099Z,43.27
2018-12-27T02:16:33.747Z,40.43
2018-12-27T02:19:02.221Z,36.77
2018-12-27T02:21:29.878Z,34.07
2018-12-27T02:24:00.308Z,40.67
2018-12-27T02:26:28.099Z,39.37
2018-12-27T02:28:55.755Z,42.27
2018-12-27T02:31:24.803Z,39.77
2018-12-27T02:33:52.517Z,40.43
2018-12-27T02:36:21.420Z,37.90
2018-12-27T02:38:49.053Z,37.70
2018-12-27T02:41:16.796Z,39.43
2018-12-27T02:43:47.187Z,46.97
2018-12-27T02:46:14.770Z,43.67
2018-12-27T02:48:42.359Z,39.80
2018-12-27T02:51:10.066Z,34.70
2018-12-27T02:53:37.731Z,42.33
2018-12-27T02:56:05.338Z,36.30
2018-12-27T02:58:33.016Z,30.93
2018-12-27T03:01:02.936Z,36.20
2018-12-27T03:03:30.620Z,40.27
2018-12-27T03:05:58.239Z,37.60
2018-12-27T03:08:25.940Z,33.77
2018-12-27T03:10:53.589Z,33.57
2018-12-27T03:13:21.441Z,30.63
2018-12-27T03:15:49.120Z,37.20
2018-12-27T03:18:16.771Z,34.97
2018-12-27T03:20:44.523Z,29.90
2018-12-27T03:23:12.104Z,35.03
2018-12-27T03:25:39.861Z,33.10
2018-12-27T03:28:07.529Z,31.30
2018-12-27T03:30:35.202Z,33.80
2018-12-27T03:33:02.898Z,31.73
2018-12-27T03:35:30.660Z,33.03
2018-12-27T03:37:58.248Z,32.10
2018-12-27T03:40:25.956Z,32.87
2018-12-27T03:42:53.672Z,30.30
2018-12-27T03:45:21.344Z,30.17
2018-12-27T03:47:48.965Z,31.10
2018-12-27T03:50:19.501Z,30.63
2018-12-27T03:52:47.226Z,28.23
2018-12-27T03:55:14.898Z,31.63
2018-12-27T03:57:42.614Z,29.17
2018-12-27T04:00:10.288Z,30.67
2018-12-27T04:02:37.927Z,26.40
2018-12-27T04:05:05.483Z,26.47
2018-12-27T04:07:33.160Z,26.33
2018-12-27T04:10:00.767Z,26.10
2018-12-27T04:12:28.494Z,28.80
2018-12-27T04:14:57.560Z,26.50
2018-12-27T04:17:27.554Z,33.23
2018-12-27T04:19:55.034Z,31.10
2018-12-27T04:22:22.455Z,27.83
2018-12-27T04:24:50.015Z,29.57
2018-12-27T04:27:17.493Z,33.83
2018-12-27T04:29:45.044Z,31.37
2018-12-27T04:32:14.467Z,32.27
2018-12-27T04:34:41.595Z,32.60
2018-12-27T04:37:09.076Z,29.17
2018-12-27T04:39:36.490Z,30.13
2018-12-27T04:42:03.969Z,30.30
2018-12-27T04:44:34.146Z,33.87
2018-12-27T04:47:01.569Z,32.53
2018-12-27T04:49:29.101Z,30.70
2018-12-27T04:51:56.700Z,31.43
2018-12-27T04:54:24.139Z,32.13
2018-12-27T04:56:51.666Z,29.53
2018-12-27T04:59:19.093Z,36.37
2018-12-27T05:01:46.487Z,49.10
2018-12-27T05:04:18.107Z,58.07
2018-12-27T05:06:43.255Z,58.23
2018-12-27T05:09:10.715Z,61.57
2018-12-27T05:11:38.361Z,61.60
2018-12-27T05:14:05.922Z,59.10
2018-12-27T05:16:33.487Z,59.87
2018-12-27T05:19:00.950Z,57.37
2018-12-27T05:21:28.442Z,53.53
2018-12-27T05:23:55.918Z,51.37
2018-12-27T05:26:23.380Z,47.93
2018-12-27T05:28:50.775Z,50.93
2018-12-27T05:31:18.166Z,50.60
2018-12-27T05:33:45.729Z,46.43
2018-12-27T05:36:16.972Z,50.67
2018-12-27T05:38:44.494Z,49.57
2018-12-27T05:41:12.098Z,50.73
2018-12-27T05:43:39.644Z,48.27
2018-12-27T05:46:07.174Z,51.80
2018-12-27T05:48:34.747Z,46.93
2018-12-27T05:51:03.936Z,51.80
2018-12-27T05:53:31.395Z,49.97
2018-12-27T05:55:58.936Z,48.47
2018-12-27T05:58:26.428Z,48.03
2018-12-27T06:00:53.845Z,49.97
2018-12-27T06:03:25.505Z,52.23
2018-12-27T06:06:03.434Z,55.73
2018-12-27T06:08:31.105Z,57.83
2018-12-27T06:10:58.504Z,56.87
2018-12-27T06:13:27.647Z,61.53
2018-12-27T06:15:55.238Z,70.33
2018-12-27T06:18:22.819Z,70.60
2018-12-27T06:20:52.649Z,67.63
2018-12-27T06:23:20.624Z,67.53
2018-12-27T06:25:48.159Z,59.53
2018-12-27T06:28:17.233Z,52.70
2018-12-27T06:30:44.769Z,55.20
2018-12-27T06:33:12.251Z,55.17
2018-12-27T06:35:39.655Z,52.13
2018-12-27T06:38:08.282Z,43.60
2018-12-27T06:40:35.851Z,54.90
2018-12-27T06:43:04.890Z,49.37
2018-12-27T06:45:35.053Z,50.80
2018-12-27T06:48:02.499Z,45.53
2018-12-27T06:50:32.515Z,48.47
2018-12-27T06:53:01.826Z,54.03
2018-12-27T06:55:29.335Z,56.33
2018-12-27T06:57:56.770Z,54.33
2018-12-27T07:00:24.361Z,48.53
2018-12-27T07:02:51.810Z,47.23
2018-12-27T07:05:26.383Z,46.40
2018-12-27T07:07:56.061Z,39.23
2018-12-27T07:10:23.307Z,44.50
2018-12-27T07:12:50.707Z,41.00
2018-12-27T07:15:18.205Z,38.03
2018-12-27T07:17:46.028Z,37.10
2018-12-27T07:20:13.426Z,33.67
2018-12-27T07:22:40.994Z,34.50
2018-12-27T07:25:08.416Z,37.80
2018-12-27T07:27:35.811Z,37.67
2018-12-27T07:30:03.233Z,34.60
2018-12-27T07:32:30.672Z,34.40
2018-12-27T07:34:58.102Z,38.83
2018-12-27T07:37:25.613Z,40.13
2018-12-27T07:39:53.041Z,37.67
2018-12-27T07:42:20.506Z,35.43
2018-12-27T07:44:47.966Z,41.73
2018-12-27T07:47:15.425Z,43.40
2018-12-27T07:49:42.969Z,41.03
2018-12-27T07:52:10.496Z,37.20
2018-12-27T07:54:37.977Z,43.00
2018-12-27T07:57:11.222Z,41.53
2018-12-27T07:59:39.575Z,40.57
2018-12-27T08:02:07.078Z,40.93
2018-12-27T08:04:34.436Z,44.53
2018-12-27T08:07:03.561Z,48.07
2018-12-27T08:09:31.058Z,42.93
2018-12-27T08:11:58.476Z,44.07
2018-12-27T08:14:25.991Z,41.20
2018-12-27T08:16:53.434Z,45.03
2018-12-27T08:19:20.884Z,49.33
2018-12-27T08:21:48.958Z,53.53
2018-12-27T08:24:16.539Z,53.77
2018-12-27T08:26:45.698Z,59.17
2018-12-27T08:29:13.261Z,55.73
2018-12-27T08:31:45.078Z,53.70
2018-12-27T08:34:09.910Z,48.03
2018-12-27T08:36:37.426Z,54.77
2018-12-27T08:39:05.703Z,52.20
2018-12-27T08:41:33.106Z,52.87
2018-12-27T08:44:00.614Z,52.77
2018-12-27T08:46:28.019Z,51.27
2018-12-27T08:48:58.444Z,51.87
2018-12-27T08:51:26.258Z,55.23
2018-12-27T08:53:53.658Z,47.50
2018-12-27T08:56:21.116Z,47.37
2018-12-27T08:58:48.651Z,42.97
2018-12-27T09:01:17.314Z,37.60
2018-12-27T09:03:44.895Z,42.97
2018-12-27T09:06:12.392Z,46.33
2018-12-27T09:08:39.902Z,45.53
2018-12-27T09:11:07.813Z,44.80
2018-12-27T09:13:35.346Z,45.73
2018-12-27T09:16:02.844Z,47.87
2018-12-27T09:18:30.431Z,53.87
2018-12-27T09:20:58.783Z,54.87
2018-12-27T09:23:28.028Z,62.30
2018-12-27T09:25:57.559Z,59.73
2018-12-27T09:28:26.975Z,59.73
2018-12-27T09:30:56.787Z,59.80
2018-12-27T09:33:28.238Z,54.40
2018-12-27T09:35:55.646Z,53.20
2018-12-27T09:38:22.990Z,58.83
2018-12-27T09:40:53.691Z,64.77
2018-12-27T09:43:21.166Z,70.63
2018-12-27T09:45:48.617Z,65.03
2018-12-27T09:48:15.891Z,68.43
2018-12-27T09:50:45.564Z,71.17
2018-12-27T09:53:14.040Z,64.23
2018-12-27T09:55:41.431Z,65.37
2018-12-27T09:58:08.926Z,70.07
2018-12-27T10:00:36.319Z,79.37
2018-12-27T10:03:03.876Z,76.40
2018-12-27T10:05:34.031Z,75.73
2018-12-27T10:08:01.753Z,71.40
2018-12-27T10:10:29.421Z,70.80
2018-12-27T10:12:56.876Z,80.23
2018-12-27T10:15:24.398Z,79.73
2018-12-27T10:20:20.818Z,80.30
2018-12-27T10:22:48.338Z,81.33
2018-12-27T10:25:15.900Z,81.93
2018-12-27T10:27:43.495Z,77.43
2018-12-27T10:30:10.980Z,74.27
2018-12-27T10:32:38.526Z,84.20
2018-12-27T10:35:08.466Z,79.50
2018-12-27T10:37:35.970Z,75.47
2018-12-27T10:40:05.100Z,87.20
2018-12-27T10:42:38.560Z,80.83
2018-12-27T10:45:07.595Z,88.93
2018-12-27T10:55:41.044Z,84.17
2018-12-27T10:58:08.492Z,84.40
2018-12-27T11:00:36.081Z,82.83
2018-12-27T11:03:04.542Z,83.83
2018-12-27T11:05:32.034Z,78.70
2018-12-27T11:07:59.580Z,77.13
2018-12-27T11:10:28.897Z,76.40
2018-12-27T11:15:33.278Z,72.47
2018-12-27T11:18:01.983Z,63.57
2018-12-27T11:20:32.447Z,67.87
2018-12-27T11:23:04.924Z,73.80
2018-12-27T11:25:32.401Z,77.67
2018-12-27T11:28:00.042Z,77.40
2018-12-27T11:30:27.557Z,81.67
2018-12-27T11:32:56.597Z,90.17
2018-12-27T11:35:24.095Z,83.17
2018-12-27T11:37:51.665Z,83.93
2018-12-27T11:40:19.316Z,85.60
2018-12-27T11:42:48.346Z,87.83
2018-12-27T11:45:15.901Z,93.53
2018-12-27T11:47:43.372Z,84.47
2018-12-27T11:50:10.843Z,88.63
2018-12-27T11:52:38.269Z,85.50
2018-12-27T11:55:07.333Z,78.93
2018-12-27T11:57:36.641Z,92.77
2018-12-27T12:00:05.533Z,92.82
2018-12-27T12:02:32.879Z,90.20
2018-12-27T12:05:01.831Z,84.90
2018-12-27T12:07:29.241Z,85.73
2018-12-27T12:09:56.710Z,86.40
2018-12-27T12:12:25.747Z,86.73
2018-12-27T12:14:53.561Z,89.30
2018-12-27T12:17:20.921Z,91.23
2018-12-27T12:19:48.349Z,92.10
2018-12-27T12:22:15.801Z,88.67
2018-12-27T12:24:43.329Z,82.93
2018-12-27T12:27:10.751Z,79.53
2018-12-27T12:29:38.311Z,77.20
2018-12-27T12:32:05.716Z,80.27
2018-12-27T12:34:33.127Z,80.43
2018-12-27T12:37:03.479Z,83.27
2018-12-27T12:39:35.346Z,75.47
2018-12-27T12:42:02.804Z,75.70
2018-12-27T12:44:31.655Z,77.87
2018-12-27T12:47:06.532Z,69.37
2018-12-27T12:49:35.310Z,78.40
2018-12-27T12:52:02.773Z,76.50
2018-12-27T12:54:30.334Z,78.97
2018-12-27T12:56:59.446Z,80.23
2018-12-27T12:59:27.086Z,84.43
2018-12-27T13:01:54.556Z,86.17
2018-12-27T13:04:22.127Z,91.47
2018-12-27T13:06:49.641Z,78.23
2018-12-27T13:09:17.027Z,81.20
2018-12-27T13:11:44.694Z,86.07
2018-12-27T13:14:14.601Z,73.70
2018-12-27T13:16:42.317Z,73.80
2018-12-27T13:19:09.827Z,70.60
2018-12-27T13:21:37.278Z,75.87
2018-12-27T13:24:04.638Z,76.40
2018-12-27T13:26:32.109Z,74.13
2018-12-27T13:28:59.531Z,75.27
2018-12-27T13:31:26.929Z,76.60
2018-12-27T13:33:54.418Z,80.13
2018-12-27T13:36:25.325Z,79.03
2018-12-27T13:38:50.850Z,84.40
2018-12-27T13:41:18.394Z,90.57
2018-12-27T13:43:47.777Z,83.63
2018-12-27T13:46:15.235Z,86.47
2018-12-27T13:48:42.859Z,81.17
2018-12-27T13:51:10.374Z,88.57
2018-12-27T13:53:37.779Z,89.43
2018-12-27T13:56:05.208Z,87.60
2018-12-27T13:58:32.701Z,80.90
2018-12-27T14:01:00.157Z,84.60
2018-12-27T14:03:27.650Z,80.20
2018-12-27T14:05:55.076Z,86.80
2018-12-27T14:08:23.542Z,85.63
2018-12-27T14:10:50.944Z,95.10
2018-12-27T14:13:18.378Z,85.83
2018-12-27T14:15:45.890Z,85.70
2018-12-27T14:18:13.534Z,88.47
2018-12-27T14:20:40.874Z,83.23
2018-12-27T14:23:08.342Z,92.23
2018-12-27T14:25:35.782Z,84.70
2018-12-27T14:28:03.252Z,91.23
2018-12-27T14:30:30.594Z,84.30
2018-12-27T14:32:58.050Z,84.60
2018-12-27T14:35:25.508Z,83.30
2018-12-27T14:37:52.936Z,83.30
2018-12-27T14:40:20.488Z,88.53
2018-12-27T14:42:48.088Z,84.57
2018-12-27T14:45:15.646Z,86.27
2018-12-27T14:47:43.302Z,92.00
2018-12-27T14:50:10.702Z,92.20
2018-12-27T14:52:38.702Z,95.33
2018-12-27T14:55:06.160Z,99.00
2018-12-27T14:57:33.628Z,100.13
2018-12-27T15:00:04.034Z,102.20
2018-12-27T15:02:31.498Z,103.33
2018-12-27T15:04:58.867Z,98.47
2018-12-27T15:07:27.926Z,99.17
2018-12-27T15:09:55.359Z,94.13
2018-12-27T15:12:22.838Z,102.17
2018-12-27T15:14:50.548Z,95.00
2018-12-27T15:17:17.965Z,93.90
2018-12-27T15:19:45.535Z,108.33
2018-12-27T15:22:12.950Z,105.33
2018-12-27T15:24:40.504Z,102.60
2018-12-27T15:27:07.832Z,103.87
2018-12-27T15:29:35.276Z,95.43
2018-12-27T15:32:02.698Z,102.53
2018-12-27T15:34:30.147Z,103.53
2018-12-27T15:36:57.474Z,103.10
2018-12-27T15:39:25.100Z,104.17
2018-12-27T15:41:52.639Z,96.93
2018-12-27T15:44:20.118Z,107.47
2018-12-27T15:46:47.570Z,104.77
2018-12-27T15:49:15.050Z,103.73
2018-12-27T15:51:42.600Z,107.93
2018-12-27T15:54:10.049Z,107.63
2018-12-27T15:56:37.677Z,108.50
2018-12-27T15:59:06.716Z,111.63
2018-12-27T16:01:34.168Z,120.27
2018-12-27T16:04:01.728Z,120.77
2018-12-27T16:06:29.200Z,128.60
2018-12-27T16:09:01.510Z,132.00
2018-12-27T16:11:28.976Z,142.63
2018-12-27T16:13:58.027Z,137.97
2018-12-27T16:16:25.575Z,133.40
2018-12-27T16:18:53.087Z,146.47
2018-12-27T16:21:20.641Z,163.83
2018-12-27T16:23:49.837Z,156.37
2018-12-27T16:26:17.502Z,154.60
2018-12-27T16:28:48.031Z,151.40
2018-12-27T16:34:06.391Z,129.67
2018-12-27T16:36:38.061Z,129.40
2018-12-27T16:39:05.817Z,125.00
2018-12-27T16:41:34.289Z,125.23
2018-12-27T16:44:01.847Z,123.83
2018-12-27T16:46:29.367Z,115.53
2018-12-27T16:48:56.899Z,118.00
2018-12-27T16:51:26.269Z,117.40
2018-12-27T16:53:53.781Z,127.40
2018-12-27T16:56:21.334Z,121.90
2018-12-27T16:58:49.598Z,116.47
2018-12-27T17:01:17.121Z,117.23
2018-12-27T17:03:44.640Z,121.90
2018-12-27T17:06:12.257Z,116.27
2018-12-27T17:08:41.402Z,128.97
2018-12-27T17:11:13.502Z,120.43
2018-12-27T17:13:41.115Z,122.97
2018-12-27T17:16:08.737Z,117.03
2018-12-27T17:18:58.962Z,109.73
2018-12-27T17:21:30.787Z,116.30
2018-12-27T17:23:58.336Z,108.97
2018-12-27T17:26:29.515Z,104.60
2018-12-27T17:28:57.182Z,119.90
2018-12-27T17:31:30.073Z,118.10
2018-12-27T17:34:00.356Z,126.93
2018-12-27T17:36:32.400Z,125.03
2018-12-27T17:39:04.732Z,124.23
2018-12-27T17:41:37.098Z,121.40
2018-12-27T17:44:06.712Z,124.10
2018-12-27T17:46:33.968Z,120.43
2018-12-27T17:49:03.372Z,125.73
2018-12-27T17:51:33.268Z,137.53
2018-12-27T17:54:02.629Z,142.80
2018-12-27T17:56:33.694Z,156.00
2018-12-27T17:59:01.380Z,158.80
2018-12-27T18:01:30.664Z,151.67
2018-12-27T18:03:59.830Z,149.87
2018-12-27T18:06:29.052Z,159.57
2018-12-27T18:08:58.321Z,153.60
2018-12-27T18:11:43.086Z,152.33
2018-12-27T18:14:16.357Z,133.33
2018-12-27T18:16:45.654Z,127.00
2018-12-27T18:19:17.306Z,115.93
2018-12-27T18:21:54.077Z,107.57
2018-12-27T18:24:23.437Z,86.43
2018-12-27T18:26:53.768Z,90.10
2018-12-27T18:29:25.318Z,78.90
2018-12-27T18:32:01.340Z,64.67
2018-12-27T18:34:24.875Z,54.80
2018-12-27T18:36:56.094Z,62.17
2018-12-27T18:39:28.152Z,59.30
2018-12-27T18:41:55.772Z,57.23
2018-12-27T18:44:25.206Z,60.23
2018-12-27T18:46:56.546Z,58.23
2018-12-27T18:49:29.492Z,53.60
2018-12-27T18:52:08.787Z,53.27
2018-12-27T18:54:41.864Z,50.50
2018-12-27T18:57:09.851Z,44.60
2018-12-27T18:59:42.178Z,44.67
2018-12-27T19:02:15.964Z,47.97
2018-12-27T19:10:51.493Z,47.63
2018-12-27T19:16:34.946Z,34.70
2018-12-27T19:19:05.852Z,44.27
2018-12-27T19:21:34.758Z,45.10
2018-12-27T19:24:02.362Z,48.47
2018-12-27T19:26:29.888Z,38.73
2018-12-27T19:28:57.668Z,45.93
2018-12-27T19:31:28.061Z,38.23
2018-12-27T19:33:55.625Z,40.57
2018-12-27T19:36:31.065Z,36.07
2018-12-27T19:38:54.130Z,42.87
2018-12-27T19:41:22.391Z,38.63
2018-12-27T19:43:53.222Z,39.97
2018-12-27T19:46:20.790Z,36.73
2018-12-27T19:48:49.936Z,36.83
2018-12-27T19:51:19.200Z,38.43
2018-12-27T19:53:54.327Z,32.87
2018-12-27T19:56:19.332Z,37.03
2018-12-27T19:58:46.902Z,31.93
2018-12-27T20:01:17.485Z,31.47
2018-12-27T20:03:44.986Z,29.07
2018-12-27T20:06:12.771Z,33.17
2018-12-27T20:08:40.436Z,35.97
2018-12-27T20:11:07.992Z,42.13
2018-12-27T20:13:35.538Z,47.70
2018-12-27T20:16:03.128Z,51.43
2018-12-27T20:18:30.733Z,46.67
2018-12-27T20:20:58.606Z,42.20
2018-12-27T20:23:26.056Z,49.73
2018-12-27T20:25:53.546Z,49.33
2018-12-27T20:28:21.229Z,48.30
2018-12-27T20:30:48.928Z,50.47
2018-12-27T20:33:16.629Z,50.87
2018-12-27T20:35:44.147Z,50.47
2018-12-27T20:38:13.245Z,48.83
2018-12-27T20:40:40.735Z,52.93
2018-12-27T20:43:08.413Z,48.73
2018-12-27T20:45:35.924Z,47.77
2018-12-27T20:48:03.738Z,42.57
2018-12-27T20:50:31.450Z,42.43
2018-12-27T20:52:58.881Z,43.60
2018-12-27T20:55:26.392Z,42.23
2018-12-27T20:57:53.880Z,50.83
2018-12-27T21:00:21.322Z,45.47
2018-12-27T21:02:48.853Z,46.37
2018-12-27T21:05:16.365Z,37.33
2018-12-27T21:07:43.769Z,38.50
2018-12-27T21:10:11.482Z,33.87
2018-12-27T21:12:39.069Z,36.87
2018-12-27T21:15:06.528Z,43.30
2018-12-27T21:17:34.088Z,40.67
2018-12-27T21:20:01.669Z,48.37
2018-12-27T21:22:30.287Z,46.70
2018-12-27T21:24:58.154Z,49.73
2018-12-27T21:27:25.740Z,47.10
2018-12-27T21:29:53.323Z,49.43
2018-12-27T21:32:21.210Z,46.47
2018-12-27T21:34:48.769Z,41.80
2018-12-27T21:37:16.285Z,39.57
2018-12-27T21:39:43.785Z,39.67
2018-12-27T21:42:11.242Z,40.07
2018-12-27T21:44:38.684Z,43.33
2018-12-27T21:47:06.250Z,32.73
2018-12-27T21:49:33.806Z,36.30
2018-12-27T21:52:01.311Z,35.27
2018-12-27T21:54:29.631Z,37.63
2018-12-27T21:56:57.242Z,37.23
2018-12-27T21:59:26.333Z,37.33
2018-12-27T22:01:53.800Z,37.47
2018-12-27T22:04:21.341Z,37.43
2018-12-27T22:06:48.898Z,42.00
2018-12-27T22:09:16.335Z,38.60
2018-12-27T22:11:44.026Z,44.20
2018-12-27T22:14:11.478Z,44.80
2018-12-27T22:16:38.830Z,48.83
2018-12-27T22:19:06.330Z,49.67
2018-12-27T22:21:33.775Z,56.73
2018-12-27T22:24:01.304Z,56.43
2018-12-27T22:26:28.847Z,67.17
2018-12-27T22:28:56.306Z,105.17
2018-12-27T22:31:23.946Z,130.30
2018-12-27T22:33:51.393Z,154.43
2018-12-27T22:36:18.872Z,159.47
2018-12-27T22:38:46.300Z,163.50
2018-12-27T22:41:16.793Z,122.30
2018-12-27T22:43:44.313Z,92.27
2018-12-27T22:46:11.923Z,76.70
2018-12-27T22:48:39.456Z,68.00
2018-12-27T22:51:06.961Z,58.53
2018-12-27T22:53:34.433Z,52.90
2018-12-27T22:56:02.015Z,55.37
2018-12-27T22:58:29.883Z,55.33
2018-12-27T23:00:57.411Z,64.03
2018-12-27T23:03:24.894Z,65.23
2018-12-27T23:05:52.499Z,58.37
2018-12-27T23:08:20.012Z,52.07
2018-12-27T23:10:49.116Z,46.97
2018-12-27T23:13:16.641Z,50.93
2018-12-27T23:15:44.103Z,48.97
2018-12-27T23:18:13.239Z,44.90
2018-12-27T23:20:40.629Z,51.80
2018-12-27T23:23:08.137Z,50.43
2018-12-27T23:25:37.119Z,49.70
2018-12-27T23:28:04.493Z,52.13
2018-12-27T23:30:31.967Z,51.77
2018-12-27T23:32:59.422Z,47.00
2018-12-27T23:35:26.858Z,47.43
2018-12-27T23:37:54.404Z,44.23
2018-12-27T23:40:21.973Z,46.70
2018-12-27T23:42:50.723Z,40.07
2018-12-27T23:45:19.847Z,43.50
2018-12-27T23:47:47.374Z,42.30
2018-12-27T23:50:14.844Z,42.73
2018-12-27T23:52:42.363Z,44.73
2018-12-27T23:55:11.420Z,45.83
2018-12-27T23:57:39.833Z,39.90
